sensor_id;sensor_type;location;lat;lon;timestamp;temperature;humidity
28010;DHT22;15334;49.494;8.410;2022-08-24T19:41:34;26.80;68.50
28010;DHT22;15334;49.494;8.410;2022-08-24T19:44:05;26.10;70.00
28010;DHT22;15334;49.494;8.410;2022-08-24T19:46:53;26.00;70.90
28010;DHT22;15334;49.494;8.410;2022-08-24T19:49:22;26.00;70.70
28010;DHT22;15334;49.494;8.410;2022-08-24T19:51:50;26.00;70.60
28010;DHT22;15334;49.494;8.410;2022-08-24T19:54:19;26.00;70.60
28010;DHT22;15334;49.494;8.410;2022-08-24T19:56:51;25.90;71.40
28010;DHT22;15334;49.494;8.410;2022-08-24T19:59:24;25.90;71.00
28010;DHT22;15334;49.494;8.410;2022-08-24T20:01:52;25.80;71.10
28010;DHT22;15334;49.494;8.410;2022-08-24T20:04:20;25.70;71.60
28010;DHT22;15334;49.494;8.410;2022-08-24T20:06:48;25.70;70.90
28010;DHT22;15334;49.494;8.410;2022-08-24T20:09:16;25.60;71.30
28010;DHT22;15334;49.494;8.410;2022-08-24T20:11:50;25.60;71.70
28010;DHT22;15334;49.494;8.410;2022-08-24T20:14:18;25.50;72.80
28010;DHT22;15334;49.494;8.410;2022-08-24T20:16:47;25.40;73.50
28010;DHT22;15334;49.494;8.410;2022-08-24T20:19:15;25.40;72.90
28010;DHT22;15334;49.494;8.410;2022-08-24T20:21:43;25.30;72.40
28010;DHT22;15334;49.494;8.410;2022-08-24T20:24:11;25.30;73.70
28010;DHT22;15334;49.494;8.410;2022-08-24T20:26:40;25.20;74.70
28010;DHT22;15334;49.494;8.410;2022-08-24T20:29:11;25.10;74.60
28010;DHT22;15334;49.494;8.410;2022-08-24T20:31:39;25.00;74.10
28010;DHT22;15334;49.494;8.410;2022-08-24T20:34:08;25.00;75.10
28010;DHT22;15334;49.494;8.410;2022-08-24T20:36:38;24.90;75.80
28010;DHT22;15334;49.494;8.410;2022-08-24T20:39:09;24.90;75.70
28010;DHT22;15334;49.494;8.410;2022-08-24T20:41:38;24.90;75.10
28010;DHT22;15334;49.494;8.410;2022-08-24T20:44:06;24.70;75.10
28010;DHT22;15334;49.494;8.410;2022-08-24T20:46:37;24.70;77.00
28010;DHT22;15334;49.494;8.410;2022-08-24T20:49:07;24.60;77.10
28010;DHT22;15334;49.494;8.410;2022-08-24T20:51:41;24.60;76.90
28010;DHT22;15334;49.494;8.410;2022-08-24T20:54:09;24.60;76.80
28010;DHT22;15334;49.494;8.410;2022-08-24T20:56:38;24.60;77.70
28010;DHT22;15334;49.494;8.410;2022-08-24T20:59:07;24.50;77.70
28010;DHT22;15334;49.494;8.410;2022-08-24T21:01:37;24.50;77.60
28010;DHT22;15334;49.494;8.410;2022-08-24T21:04:08;24.50;76.90
28010;DHT22;15334;49.494;8.410;2022-08-24T21:06:38;24.50;77.30
28010;DHT22;15334;49.494;8.410;2022-08-24T21:09:07;24.50;77.60
28010;DHT22;15334;49.494;8.410;2022-08-24T21:11:40;24.50;77.60
28010;DHT22;15334;49.494;8.410;2022-08-24T21:14:08;24.50;76.80
28010;DHT22;15334;49.494;8.410;2022-08-24T21:16:39;24.50;77.70
28010;DHT22;15334;49.494;8.410;2022-08-24T21:19:09;24.60;76.50
28010;DHT22;15334;49.494;8.410;2022-08-24T21:21:43;24.60;77.80
28010;DHT22;15334;49.494;8.410;2022-08-24T21:24:15;24.60;77.80
28010;DHT22;15334;49.494;8.410;2022-08-24T21:26:43;24.70;77.60
28010;DHT22;15334;49.494;8.410;2022-08-24T21:29:11;24.70;77.90
28010;DHT22;15334;49.494;8.410;2022-08-24T21:31:40;24.70;77.50
28010;DHT22;15334;49.494;8.410;2022-08-24T21:34:29;24.70;77.70
28010;DHT22;15334;49.494;8.410;2022-08-24T21:37:08;24.70;77.70
28010;DHT22;15334;49.494;8.410;2022-08-24T21:39:36;24.70;78.50
28010;DHT22;15334;49.494;8.410;2022-08-24T21:42:05;24.80;78.80
28010;DHT22;15334;49.494;8.410;2022-08-24T21:44:34;24.80;79.10
28010;DHT22;15334;49.494;8.410;2022-08-24T21:47:05;24.70;79.00
28010;DHT22;15334;49.494;8.410;2022-08-24T21:49:34;24.70;79.20
28010;DHT22;15334;49.494;8.410;2022-08-24T21:52:04;24.80;79.30
28010;DHT22;15334;49.494;8.410;2022-08-24T21:54:33;24.80;79.30
28010;DHT22;15334;49.494;8.410;2022-08-24T21:57:03;24.70;79.90
28010;DHT22;15334;49.494;8.410;2022-08-24T21:59:31;24.60;80.50
28010;DHT22;15334;49.494;8.410;2022-08-24T22:02:00;24.60;81.10
28010;DHT22;15334;49.494;8.410;2022-08-24T22:04:31;24.60;81.40
28010;DHT22;15334;49.494;8.410;2022-08-24T22:06:59;24.50;81.40
28010;DHT22;15334;49.494;8.410;2022-08-24T22:09:31;24.50;82.00
28010;DHT22;15334;49.494;8.410;2022-08-24T22:11:59;24.40;82.50
28010;DHT22;15334;49.494;8.410;2022-08-24T22:14:27;24.40;82.10
28010;DHT22;15334;49.494;8.410;2022-08-24T22:16:55;24.50;81.90
28010;DHT22;15334;49.494;8.410;2022-08-24T22:19:23;24.50;83.70
28010;DHT22;15334;49.494;8.410;2022-08-24T22:21:52;24.50;83.40
28010;DHT22;15334;49.494;8.410;2022-08-24T22:24:20;24.50;82.70
28010;DHT22;15334;49.494;8.410;2022-08-24T22:26:48;24.40;84.10
28010;DHT22;15334;49.494;8.410;2022-08-24T22:29:16;24.40;84.10
28010;DHT22;15334;49.494;8.410;2022-08-24T22:31:44;24.40;84.20
28010;DHT22;15334;49.494;8.410;2022-08-24T22:34:14;24.40;84.40
28010;DHT22;15334;49.494;8.410;2022-08-24T22:36:47;24.40;85.90
28010;DHT22;15334;49.494;8.410;2022-08-24T22:39:17;24.40;85.30
28010;DHT22;15334;49.494;8.410;2022-08-24T22:41:45;24.30;85.70
28010;DHT22;15334;49.494;8.410;2022-08-24T22:44:13;24.30;86.30
28010;DHT22;15334;49.494;8.410;2022-08-24T22:46:49;24.30;86.50
28010;DHT22;15334;49.494;8.410;2022-08-24T22:49:18;24.30;86.80
28010;DHT22;15334;49.494;8.410;2022-08-24T22:51:47;24.30;87.40
28010;DHT22;15334;49.494;8.410;2022-08-24T22:54:17;24.30;87.30
28010;DHT22;15334;49.494;8.410;2022-08-24T22:56:47;24.20;88.40
28010;DHT22;15334;49.494;8.410;2022-08-24T22:59:18;24.20;88.70
28010;DHT22;15334;49.494;8.410;2022-08-24T23:01:48;24.20;89.00
28010;DHT22;15334;49.494;8.410;2022-08-24T23:04:19;24.20;89.70
28010;DHT22;15334;49.494;8.410;2022-08-24T23:06:47;24.20;89.70
28010;DHT22;15334;49.494;8.410;2022-08-24T23:09:16;24.20;90.10
28010;DHT22;15334;49.494;8.410;2022-08-24T23:11:44;24.20;90.40
28010;DHT22;15334;49.494;8.410;2022-08-24T23:14:14;24.20;90.20
28010;DHT22;15334;49.494;8.410;2022-08-24T23:16:43;24.20;90.50
28010;DHT22;15334;49.494;8.410;2022-08-24T23:19:14;24.10;90.50
28010;DHT22;15334;49.494;8.410;2022-08-24T23:22:01;24.20;91.20
28010;DHT22;15334;49.494;8.410;2022-08-24T23:24:32;24.20;91.20
28010;DHT22;15334;49.494;8.410;2022-08-24T23:27:00;24.20;91.90
28010;DHT22;15334;49.494;8.410;2022-08-24T23:29:28;24.10;91.30
28010;DHT22;15334;49.494;8.410;2022-08-24T23:31:57;24.20;91.50
28010;DHT22;15334;49.494;8.410;2022-08-24T23:34:25;24.20;91.80
28010;DHT22;15334;49.494;8.410;2022-08-24T23:36:53;24.10;91.90
